createdAt,value
2023-05-12T00:00:47.034Z,1008.42
2023-05-12T00:01:47.027Z,1008.41
2023-05-12T00:02:47.125Z,1008.43
2023-05-12T00:03:47.425Z,1008.41
2023-05-12T00:04:47.045Z,1008.40
2023-05-12T00:05:46.972Z,1008.41
2023-05-12T00:06:46.962Z,1008.43
2023-05-12T00:07:47.000Z,1008.40
2023-05-12T00:08:46.961Z,1008.41
2023-05-12T00:09:46.951Z,1008.43
2023-05-12T00:10:46.922Z,1008.40
2023-05-12T00:11:46.928Z,1008.45
2023-05-12T00:12:46.899Z,1008.41
2023-05-12T00:13:46.958Z,1008.47
2023-05-12T00:14:46.877Z,1008.47
2023-05-12T00:15:46.898Z,1008.43
2023-05-12T00:16:47.024Z,1008.45
2023-05-12T00:17:46.870Z,1008.45
2023-05-12T00:18:46.904Z,1008.42
2023-05-12T00:19:46.827Z,1008.46
2023-05-12T00:20:46.800Z,1008.45
2023-05-12T00:21:46.806Z,1008.47
2023-05-12T00:22:46.774Z,1008.47
2023-05-12T00:23:46.792Z,1008.44
2023-05-12T00:24:46.752Z,1008.45
2023-05-12T00:25:46.746Z,1008.45
2023-05-12T00:26:46.735Z,1008.48
2023-05-12T00:27:46.740Z,1008.48
2023-05-12T00:28:46.750Z,1008.47
2023-05-12T00:29:46.730Z,1008.45
2023-05-12T00:30:46.702Z,1008.45
2023-05-12T00:31:46.853Z,1008.43
2023-05-12T00:32:46.677Z,1008.44
2023-05-12T00:33:46.686Z,1008.41
2023-05-12T00:34:46.649Z,1008.42
2023-05-12T00:35:46.649Z,1008.39
2023-05-12T00:36:46.627Z,1008.41
2023-05-12T00:37:46.627Z,1008.40
2023-05-12T00:38:46.638Z,1008.40
2023-05-12T00:39:46.594Z,1008.39
2023-05-12T00:40:46.586Z,1008.39
2023-05-12T00:41:46.570Z,1008.38
2023-05-12T00:42:46.564Z,1008.39
2023-05-12T00:43:46.641Z,1008.40
2023-05-12T00:44:46.542Z,1008.38
2023-05-12T00:45:46.587Z,1008.36
2023-05-12T00:46:46.517Z,1008.35
2023-05-12T00:47:46.627Z,1008.36
2023-05-12T00:48:46.535Z,1008.31
2023-05-12T00:49:46.499Z,1008.32
2023-05-12T00:50:46.491Z,1008.30
2023-05-12T00:51:46.462Z,1008.28
2023-05-12T00:52:46.463Z,1008.29
2023-05-12T00:53:50.254Z,1008.28
2023-05-12T00:54:46.432Z,1008.21
2023-05-12T00:55:46.437Z,1008.23
2023-05-12T00:56:46.423Z,1008.21
2023-05-12T00:57:46.424Z,1008.24
2023-05-12T00:58:46.417Z,1008.24
2023-05-12T00:59:46.370Z,1008.22
2023-05-12T01:00:46.391Z,1008.24
2023-05-12T01:01:46.376Z,1008.23
2023-05-12T01:02:46.448Z,1008.23
2023-05-12T01:03:46.419Z,1008.21
2023-05-12T01:04:46.362Z,1008.24
2023-05-12T01:05:46.328Z,1008.23
2023-05-12T01:06:46.296Z,1008.25
2023-05-12T01:07:46.299Z,1008.24
2023-05-12T01:08:46.295Z,1008.22
2023-05-12T01:09:46.311Z,1008.23
2023-05-12T01:10:46.271Z,1008.18
2023-05-12T01:11:46.251Z,1008.20
2023-05-12T01:12:46.246Z,1008.22
2023-05-12T01:13:46.216Z,1008.23
2023-05-12T01:14:46.210Z,1008.19
2023-05-12T01:15:46.221Z,1008.23
2023-05-12T01:16:46.214Z,1008.19
2023-05-12T01:17:46.254Z,1008.14
2023-05-12T01:18:46.208Z,1008.15
2023-05-12T01:19:46.149Z,1008.12
2023-05-12T01:20:46.157Z,1008.10
2023-05-12T01:21:46.131Z,1008.05
2023-05-12T01:22:46.124Z,1008.01
2023-05-12T01:23:46.122Z,1007.97
2023-05-12T01:24:46.105Z,1007.94
2023-05-12T01:25:46.097Z,1007.89
2023-05-12T01:26:46.081Z,1007.79
2023-05-12T01:27:46.073Z,1007.75
2023-05-12T01:28:46.080Z,1007.67
2023-05-12T01:29:46.051Z,1007.64
2023-05-12T01:30:46.113Z,1007.58
2023-05-12T01:31:46.071Z,1007.61
2023-05-12T01:32:46.159Z,1007.66
2023-05-12T01:33:46.050Z,1007.71
2023-05-12T01:34:45.987Z,1007.77
2023-05-12T01:35:45.986Z,1007.77
2023-05-12T01:36:45.976Z,1007.79
2023-05-12T01:37:45.965Z,1007.78
2023-05-12T01:38:45.973Z,1007.76
2023-05-12T01:39:45.938Z,1007.80
2023-05-12T01:40:45.917Z,1007.81
2023-05-12T01:41:45.917Z,1007.86
2023-05-12T01:42:45.909Z,1007.85
2023-05-12T01:43:45.926Z,1007.86
2023-05-12T01:44:45.892Z,1007.89
2023-05-12T01:45:45.869Z,1007.85
2023-05-12T01:46:45.898Z,1007.88
2023-05-12T01:47:45.910Z,1007.91
2023-05-12T01:48:45.856Z,1007.90
2023-05-12T01:49:45.854Z,1007.91
2023-05-12T01:50:45.807Z,1007.88
2023-05-12T01:51:45.807Z,1007.83
2023-05-12T01:52:45.791Z,1007.87
2023-05-12T01:53:45.805Z,1007.79
2023-05-12T01:54:45.765Z,1007.82
2023-05-12T01:55:45.747Z,1007.82
2023-05-12T01:56:45.754Z,1007.80
2023-05-12T01:57:45.751Z,1007.82
2023-05-12T01:58:45.811Z,1007.82
2023-05-12T01:59:45.702Z,1007.81
2023-05-12T02:00:45.711Z,1007.83
2023-05-12T02:01:45.683Z,1007.87
2023-05-12T02:02:45.761Z,1007.85
2023-05-12T02:03:45.761Z,1007.87
2023-05-12T02:04:45.647Z,1007.82
2023-05-12T02:05:46.534Z,1007.86
2023-05-12T02:06:45.641Z,1007.84
2023-05-12T02:07:45.606Z,1007.81
2023-05-12T02:08:45.648Z,1007.85
2023-05-12T02:09:45.589Z,1007.86
2023-05-12T02:10:45.600Z,1007.86
2023-05-12T02:11:45.566Z,1007.88
2023-05-12T02:12:45.592Z,1007.89
2023-05-12T02:13:45.555Z,1007.87
2023-05-12T02:14:45.559Z,1007.91
2023-05-12T02:15:45.519Z,1007.87
2023-05-12T02:16:45.568Z,1007.86
2023-05-12T02:17:45.542Z,1007.86
2023-05-12T02:18:45.575Z,1007.84
2023-05-12T02:19:45.489Z,1007.89
2023-05-12T02:20:45.474Z,1007.84
2023-05-12T02:21:45.583Z,1007.80
2023-05-12T02:22:45.460Z,1007.81
2023-05-12T02:23:45.481Z,1007.88
2023-05-12T02:24:45.435Z,1007.83
2023-05-12T02:25:45.435Z,1007.82
2023-05-12T02:26:45.482Z,1007.82
2023-05-12T02:27:45.394Z,1007.79
2023-05-12T02:28:45.389Z,1007.81
2023-05-12T02:29:45.409Z,1007.82
2023-05-12T02:30:45.397Z,1007.81
2023-05-12T02:31:45.385Z,1007.81
2023-05-12T02:32:45.363Z,1007.82
2023-05-12T02:33:45.339Z,1007.81
2023-05-12T02:34:45.330Z,1007.82
2023-05-12T02:35:45.363Z,1007.76
2023-05-12T02:36:45.336Z,1007.81
2023-05-12T02:37:45.315Z,1007.78
2023-05-12T02:38:45.284Z,1007.79
2023-05-12T02:39:45.257Z,1007.76
2023-05-12T02:40:45.251Z,1007.78
2023-05-12T02:41:45.250Z,1007.77
2023-05-12T02:42:45.227Z,1007.77
2023-05-12T02:43:45.249Z,1007.77
2023-05-12T02:44:45.231Z,1007.76
2023-05-12T02:45:45.211Z,1007.76
2023-05-12T02:46:45.194Z,1007.74
2023-05-12T02:47:45.242Z,1007.75
2023-05-12T02:48:45.204Z,1007.76
2023-05-12T02:49:45.160Z,1007.76
2023-05-12T02:50:45.157Z,1007.74
2023-05-12T02:51:45.138Z,1007.75
2023-05-12T02:52:45.132Z,1007.75
2023-05-12T02:53:45.155Z,1007.76
2023-05-12T02:54:45.109Z,1007.73
2023-05-12T02:55:45.086Z,1007.75
2023-05-12T02:56:45.075Z,1007.74
2023-05-12T02:57:45.071Z,1007.74
2023-05-12T02:58:45.069Z,1007.73
2023-05-12T02:59:45.070Z,1007.73
2023-05-12T03:00:45.067Z,1007.74
2023-05-12T03:01:45.092Z,1007.74
2023-05-12T03:02:45.196Z,1007.74
2023-05-12T03:03:45.197Z,1007.78
2023-05-12T03:04:45.004Z,1007.72
2023-05-12T03:05:44.989Z,1007.76
2023-05-12T03:06:44.969Z,1007.75
2023-05-12T03:07:44.951Z,1007.72
2023-05-12T03:08:44.958Z,1007.75
2023-05-12T03:09:44.965Z,1007.76
2023-05-12T03:10:44.934Z,1007.78
2023-05-12T03:11:44.920Z,1007.80
2023-05-12T03:12:44.914Z,1007.83
2023-05-12T03:13:44.915Z,1007.84
2023-05-12T03:14:44.877Z,1007.77
2023-05-12T03:15:44.886Z,1007.80
2023-05-12T03:16:44.861Z,1007.77
2023-05-12T03:17:44.900Z,1007.76
2023-05-12T03:18:44.898Z,1007.76
2023-05-12T03:19:44.829Z,1007.71
2023-05-12T03:20:44.829Z,1007.74
2023-05-12T03:21:44.811Z,1007.75
2023-05-12T03:22:44.792Z,1007.77
2023-05-12T03:23:44.833Z,1007.78
2023-05-12T03:24:44.792Z,1007.81
2023-05-12T03:25:44.774Z,1007.76
2023-05-12T03:26:44.746Z,1007.78
2023-05-12T03:27:44.730Z,1007.79
2023-05-12T03:28:44.743Z,1007.73
2023-05-12T03:29:44.717Z,1007.75
2023-05-12T03:30:44.720Z,1007.78
2023-05-12T03:31:44.800Z,1007.78
2023-05-12T03:32:44.716Z,1007.75
2023-05-12T03:33:44.668Z,1007.78
2023-05-12T03:34:44.709Z,1007.78
2023-05-12T03:35:44.651Z,1007.78
2023-05-12T03:36:44.661Z,1007.76
2023-05-12T03:37:44.638Z,1007.76
2023-05-12T03:38:44.640Z,1007.78
2023-05-12T03:39:44.611Z,1007.75
2023-05-12T03:40:44.599Z,1007.74
2023-05-12T03:41:44.606Z,1007.77
2023-05-12T03:42:44.566Z,1007.73
2023-05-12T03:43:44.590Z,1007.72
2023-05-12T03:44:44.560Z,1007.76
2023-05-12T03:45:44.530Z,1007.75
2023-05-12T03:46:44.569Z,1007.74
2023-05-12T03:47:44.673Z,1007.79
2023-05-12T03:48:44.530Z,1007.77
2023-05-12T03:49:44.495Z,1007.76
2023-05-12T03:50:44.479Z,1007.76
2023-05-12T03:51:44.468Z,1007.72
2023-05-12T03:52:44.456Z,1007.77
2023-05-12T03:53:44.440Z,1007.79
2023-05-12T03:54:44.494Z,1007.75
2023-05-12T03:55:44.433Z,1007.73
2023-05-12T03:56:44.428Z,1007.76
2023-05-12T03:57:44.419Z,1007.77
2023-05-12T03:58:44.390Z,1007.78
2023-05-12T03:59:44.394Z,1007.79
2023-05-12T04:00:44.381Z,1007.76
2023-05-12T04:01:44.396Z,1007.79
2023-05-12T04:02:44.450Z,1007.80
2023-05-12T04:03:44.463Z,1007.76
2023-05-12T04:04:44.316Z,1007.79
2023-05-12T04:05:44.332Z,1007.76
2023-05-12T04:06:44.300Z,1007.74
2023-05-12T04:07:44.304Z,1007.78
2023-05-12T04:08:44.296Z,1007.76
2023-05-12T04:09:44.280Z,1007.81
2023-05-12T04:10:44.252Z,1007.75
2023-05-12T04:11:44.235Z,1007.78
2023-05-12T04:12:44.227Z,1007.81
2023-05-12T04:13:44.291Z,1007.82
2023-05-12T04:14:44.204Z,1007.85
2023-05-12T04:15:44.195Z,1007.85
2023-05-12T04:16:44.230Z,1007.85
2023-05-12T04:17:44.263Z,1007.90
2023-05-12T04:18:44.241Z,1007.89
2023-05-12T04:19:44.150Z,1007.92
2023-05-12T04:20:44.138Z,1007.93
2023-05-12T04:21:44.124Z,1007.94
2023-05-12T04:22:44.118Z,1007.94
2023-05-12T04:23:44.133Z,1007.95
2023-05-12T04:24:44.094Z,1007.95
2023-05-12T04:25:44.080Z,1007.98
2023-05-12T04:26:44.080Z,1007.97
2023-05-12T04:27:44.069Z,1007.97
2023-05-12T04:28:44.075Z,1007.97
2023-05-12T04:29:44.067Z,1007.99
2023-05-12T04:30:44.023Z,1008.02
2023-05-12T04:31:44.093Z,1008.01
2023-05-12T04:32:44.028Z,1008.05
2023-05-12T04:33:44.949Z,1008.06
2023-05-12T04:34:43.992Z,1008.03
2023-05-12T04:35:43.990Z,1008.06
2023-05-12T04:36:43.969Z,1008.05
2023-05-12T04:37:44.042Z,1008.04
2023-05-12T04:38:43.968Z,1008.07
2023-05-12T04:39:43.923Z,1008.04
2023-05-12T04:40:43.928Z,1008.07
2023-05-12T04:41:43.910Z,1008.07
2023-05-12T04:42:43.910Z,1008.10
2023-05-12T04:44:43.882Z,1008.11
2023-05-12T04:45:44.004Z,1008.10
2023-05-12T04:46:43.930Z,1008.13
2023-05-12T04:47:43.897Z,1008.08
2023-05-12T04:48:43.852Z,1008.14
2023-05-12T04:49:43.834Z,1008.15
2023-05-12T04:50:43.801Z,1008.16
2023-05-12T04:51:43.807Z,1008.18
2023-05-12T04:52:43.781Z,1008.16
2023-05-12T04:53:43.772Z,1008.16
2023-05-12T04:54:43.809Z,1008.15
2023-05-12T04:55:43.759Z,1008.18
2023-05-12T04:56:43.733Z,1008.21
2023-05-12T04:57:43.726Z,1008.20
2023-05-12T04:58:43.728Z,1008.22
2023-05-12T04:59:43.733Z,1008.23
2023-05-12T05:00:43.687Z,1008.24
2023-05-12T05:01:43.987Z,1008.26
2023-05-12T05:02:43.777Z,1008.28
2023-05-12T05:03:43.912Z,1008.36
2023-05-12T05:04:43.672Z,1008.37
2023-05-12T05:05:43.634Z,1008.38
2023-05-12T05:06:43.631Z,1008.38
2023-05-12T05:07:43.618Z,1008.40
2023-05-12T05:08:43.609Z,1008.41
2023-05-12T05:09:43.606Z,1008.41
2023-05-12T05:10:43.582Z,1008.43
2023-05-12T05:11:43.583Z,1008.42
2023-05-12T05:12:43.554Z,1008.43
2023-05-12T05:13:43.562Z,1008.43
2023-05-12T05:14:43.576Z,1008.47
2023-05-12T05:15:43.593Z,1008.47
2023-05-12T05:16:43.520Z,1008.49
2023-05-12T05:17:43.589Z,1008.48
2023-05-12T05:18:43.556Z,1008.48
2023-05-12T05:19:55.204Z,1008.47
2023-05-12T05:20:45.626Z,1008.51
2023-05-12T05:21:44.453Z,1008.50
2023-05-12T05:22:43.460Z,1008.56
2023-05-12T05:23:43.430Z,1008.54
2023-05-12T05:24:43.452Z,1008.52
2023-05-12T05:25:43.427Z,1008.54
2023-05-12T05:26:43.399Z,1008.54
2023-05-12T05:27:43.399Z,1008.56
2023-05-12T05:28:43.386Z,1008.57
2023-05-12T05:29:43.367Z,1008.61
2023-05-12T05:30:43.374Z,1008.59
2023-05-12T05:31:43.458Z,1008.62
2023-05-12T05:32:43.423Z,1008.64
2023-05-12T05:33:43.367Z,1008.61
2023-05-12T05:34:43.350Z,1008.64
2023-05-12T05:35:43.355Z,1008.61
2023-05-12T05:36:43.282Z,1008.66
2023-05-12T05:37:43.277Z,1008.64
2023-05-12T05:38:43.273Z,1008.66
2023-05-12T05:39:43.265Z,1008.68
2023-05-12T05:40:52.987Z,1008.67
2023-05-12T05:41:44.232Z,1008.65
2023-05-12T05:42:43.216Z,1008.67
2023-05-12T05:43:43.220Z,1008.67
2023-05-12T05:44:43.209Z,1008.72
2023-05-12T05:45:43.183Z,1008.71
2023-05-12T05:46:43.248Z,1008.75
2023-05-12T05:47:43.219Z,1008.73
2023-05-12T05:48:43.148Z,1008.74
2023-05-12T05:49:43.186Z,1008.78
2023-05-12T05:50:43.148Z,1008.79
2023-05-12T05:51:43.128Z,1008.83
2023-05-12T05:52:43.108Z,1008.83
2023-05-12T05:53:43.093Z,1008.85
2023-05-12T05:54:43.083Z,1008.83
2023-05-12T05:55:43.132Z,1008.84
2023-05-12T05:56:43.074Z,1008.89
2023-05-12T05:57:43.046Z,1008.85
2023-05-12T05:58:43.038Z,1008.90
2023-05-12T05:59:43.035Z,1008.86
2023-05-12T06:00:43.038Z,1008.90
2023-05-12T06:01:43.030Z,1008.96
2023-05-12T06:02:43.085Z,1008.94
2023-05-12T06:03:43.053Z,1008.96
2023-05-12T06:04:42.973Z,1008.95
2023-05-12T06:05:43.114Z,1008.97
2023-05-12T06:06:42.945Z,1009.01
2023-05-12T06:07:42.949Z,1009.00
2023-05-12T06:08:42.932Z,1009.02
2023-05-12T06:09:42.909Z,1009.05
2023-05-12T06:10:42.929Z,1009.06
2023-05-12T06:11:42.911Z,1009.05
2023-05-12T06:12:42.893Z,1009.03
2023-05-12T06:13:42.882Z,1009.10
2023-05-12T06:14:42.862Z,1009.11
2023-05-12T06:15:42.854Z,1009.14
2023-05-12T06:16:42.879Z,1009.13
2023-05-12T06:17:42.854Z,1009.13
2023-05-12T06:18:42.852Z,1009.15
2023-05-12T06:19:42.801Z,1009.17
2023-05-12T06:20:42.796Z,1009.21
2023-05-12T06:21:42.815Z,1009.21
2023-05-12T06:22:42.789Z,1009.24
2023-05-12T06:23:42.751Z,1009.22
2023-05-12T06:24:42.752Z,1009.24
2023-05-12T06:25:42.742Z,1009.20
2023-05-12T06:26:42.718Z,1009.25
2023-05-12T06:27:42.705Z,1009.28
2023-05-12T06:28:42.722Z,1009.28
2023-05-12T06:29:42.685Z,1009.26
2023-05-12T06:30:42.697Z,1009.29
2023-05-12T06:31:42.701Z,1009.33
2023-05-12T06:32:42.711Z,1009.32
2023-05-12T06:33:42.659Z,1009.30
2023-05-12T06:34:42.628Z,1009.32
2023-05-12T06:35:42.644Z,1009.23
2023-05-12T06:36:42.621Z,1009.30
2023-05-12T06:37:42.624Z,1009.33
2023-05-12T06:38:42.583Z,1009.33
2023-05-12T06:39:42.576Z,1009.33
2023-05-12T06:40:42.577Z,1009.34
2023-05-12T06:41:42.576Z,1009.34
2023-05-12T06:42:42.546Z,1009.36
2023-05-12T06:43:42.532Z,1009.34
2023-05-12T06:44:42.733Z,1009.37
2023-05-12T06:45:42.533Z,1009.33
2023-05-12T06:46:42.666Z,1009.42
2023-05-12T06:47:42.524Z,1009.42
2023-05-12T06:48:42.480Z,1009.45
2023-05-12T06:49:42.464Z,1009.42
2023-05-12T06:50:42.452Z,1009.43
2023-05-12T06:51:42.479Z,1009.44
2023-05-12T06:52:42.440Z,1009.44
2023-05-12T06:53:42.461Z,1009.45
2023-05-12T06:54:42.411Z,1009.43
2023-05-12T06:55:42.402Z,1009.46
2023-05-12T06:56:42.398Z,1009.48
2023-05-12T06:57:42.377Z,1009.47
2023-05-12T06:58:42.380Z,1009.55
2023-05-12T06:59:42.355Z,1009.49
2023-05-12T07:00:42.338Z,1009.48
2023-05-12T07:01:42.412Z,1009.51
2023-05-12T07:02:42.349Z,1009.52
2023-05-12T07:03:42.354Z,1009.52
2023-05-12T07:04:42.294Z,1009.55
2023-05-12T07:05:42.393Z,1009.63
2023-05-12T07:06:42.292Z,1009.56
2023-05-12T07:07:42.273Z,1009.58
2023-05-12T07:08:42.245Z,1009.65
2023-05-12T07:09:42.283Z,1009.55
2023-05-12T07:10:42.226Z,1009.59
2023-05-12T07:11:42.227Z,1009.61
2023-05-12T07:12:42.204Z,1009.52
2023-05-12T07:13:42.194Z,1009.56
2023-05-12T07:14:42.174Z,1009.63
2023-05-12T07:15:42.272Z,1009.61
2023-05-12T07:16:42.176Z,1009.60
2023-05-12T07:17:42.197Z,1009.61
2023-05-12T07:18:42.197Z,1009.63
2023-05-12T07:19:42.138Z,1009.62
2023-05-12T07:20:42.110Z,1009.57
2023-05-12T07:21:42.138Z,1009.65
2023-05-12T07:22:42.100Z,1009.65
2023-05-12T07:23:42.094Z,1009.68
2023-05-12T07:24:42.088Z,1009.69
2023-05-12T07:25:42.136Z,1009.68
2023-05-12T07:26:42.136Z,1009.70
2023-05-12T07:27:42.052Z,1009.71
2023-05-12T07:28:42.030Z,1009.69
2023-05-12T07:29:42.017Z,1009.75
2023-05-12T07:30:42.004Z,1009.72
2023-05-12T07:31:42.067Z,1009.77
2023-05-12T07:32:42.050Z,1009.74
2023-05-12T07:33:41.970Z,1009.78
2023-05-12T07:34:41.971Z,1009.77
2023-05-12T07:35:41.956Z,1009.79
2023-05-12T07:36:41.931Z,1009.76
2023-05-12T07:37:41.957Z,1009.83
2023-05-12T07:38:42.193Z,1009.80
2023-05-12T07:39:41.909Z,1009.81
2023-05-12T07:40:41.885Z,1009.80
2023-05-12T07:41:41.905Z,1009.80
2023-05-12T07:42:41.883Z,1009.80
2023-05-12T07:43:41.861Z,1009.81
2023-05-12T07:44:41.847Z,1009.81
2023-05-12T07:45:41.850Z,1009.81
2023-05-12T07:46:41.866Z,1009.80
2023-05-12T07:47:41.886Z,1009.82
2023-05-12T07:48:41.816Z,1009.83
2023-05-12T07:49:41.813Z,1009.84
2023-05-12T07:50:41.830Z,1009.82
2023-05-12T07:51:41.774Z,1009.82
2023-05-12T07:52:41.795Z,1009.88
2023-05-12T07:53:41.761Z,1009.84
2023-05-12T07:54:41.736Z,1009.86
2023-05-12T07:55:41.747Z,1009.88
2023-05-12T07:56:41.727Z,1009.90
2023-05-12T07:57:41.860Z,1009.91
2023-05-12T07:58:41.695Z,1009.92
2023-05-12T07:59:41.695Z,1009.94
2023-05-12T08:00:41.673Z,1009.94
2023-05-12T08:01:41.765Z,1009.93
2023-05-12T08:02:41.796Z,1010.01
2023-05-12T08:03:41.777Z,1010.00
2023-05-12T08:04:43.231Z,1009.98
2023-05-12T08:05:41.617Z,1010.00
2023-05-12T08:06:41.613Z,1009.99
2023-05-12T08:07:41.626Z,1009.96
2023-05-12T08:08:41.624Z,1010.02
2023-05-12T08:09:41.587Z,1009.96
2023-05-12T08:10:41.572Z,1009.96
2023-05-12T08:11:43.231Z,1009.96
2023-05-12T08:12:41.570Z,1009.99
2023-05-12T08:13:41.596Z,1010.03
2023-05-12T08:14:41.512Z,1010.01
2023-05-12T08:15:41.512Z,1010.04
2023-05-12T08:16:41.516Z,1010.01
2023-05-12T08:17:41.564Z,1010.00
2023-05-12T08:18:41.533Z,1010.06
2023-05-12T08:19:41.979Z,1010.04
2023-05-12T08:20:41.466Z,1010.01
2023-05-12T08:21:41.447Z,1010.02
2023-05-12T08:22:41.436Z,1010.05
2023-05-12T08:23:41.428Z,1010.04
2023-05-12T08:24:41.444Z,1010.06
2023-05-12T08:25:41.390Z,1010.04
2023-05-12T08:26:41.392Z,1010.09
2023-05-12T08:27:41.404Z,1010.07
2023-05-12T08:28:41.428Z,1010.08
2023-05-12T08:29:41.424Z,1010.13
2023-05-12T08:30:41.367Z,1010.08
2023-05-12T08:31:41.352Z,1010.11
2023-05-12T08:32:41.340Z,1010.10
2023-05-12T08:33:41.316Z,1010.11
2023-05-12T08:34:41.351Z,1010.12
2023-05-12T08:35:41.283Z,1010.11
2023-05-12T08:36:41.270Z,1010.14
2023-05-12T08:37:41.270Z,1010.12
2023-05-12T08:38:41.273Z,1010.12
2023-05-12T08:39:41.239Z,1010.10
2023-05-12T08:40:41.264Z,1010.15
2023-05-12T08:41:41.215Z,1010.20
2023-05-12T08:42:41.199Z,1010.21
2023-05-12T08:43:41.201Z,1010.19
2023-05-12T08:44:41.171Z,1010.19
2023-05-12T08:45:41.228Z,1010.18
2023-05-12T08:46:41.239Z,1010.28
2023-05-12T08:47:41.189Z,1010.28
2023-05-12T08:48:41.129Z,1010.26
2023-05-12T08:49:41.164Z,1010.21
2023-05-12T08:50:41.105Z,1010.29
2023-05-12T08:51:41.096Z,1010.24
2023-05-12T08:52:41.102Z,1010.32
2023-05-12T08:53:41.092Z,1010.29
2023-05-12T08:54:52.335Z,1010.25
2023-05-12T08:55:46.112Z,1010.21
2023-05-12T08:57:41.032Z,1010.28
2023-05-12T08:58:42.369Z,1010.30
2023-05-12T08:59:41.032Z,1010.22
2023-05-12T09:00:41.052Z,1010.25
2023-05-12T09:01:41.120Z,1010.30
2023-05-12T09:02:52.204Z,1010.34
2023-05-12T09:03:41.984Z,1010.24
2023-05-12T09:04:40.971Z,1010.32
2023-05-12T09:05:41.152Z,1010.38
2023-05-12T09:06:40.931Z,1010.29
2023-05-12T09:07:40.916Z,1010.34
2023-05-12T09:08:40.902Z,1010.29
2023-05-12T09:09:40.924Z,1010.28
2023-05-12T09:10:40.899Z,1010.30
2023-05-12T09:11:40.889Z,1010.26
2023-05-12T09:12:40.880Z,1010.29
2023-05-12T09:13:40.855Z,1010.28
2023-05-12T09:14:40.857Z,1010.24
2023-05-12T09:15:40.841Z,1010.28
2023-05-12T09:16:40.906Z,1010.27
2023-05-12T09:17:40.949Z,1010.28
2023-05-12T09:18:40.843Z,1010.30
2023-05-12T09:19:40.798Z,1010.31
2023-05-12T09:20:40.774Z,1010.31
2023-05-12T09:21:40.761Z,1010.30
2023-05-12T09:22:40.798Z,1010.32
2023-05-12T09:23:40.773Z,1010.34
2023-05-12T09:24:40.856Z,1010.33
2023-05-12T09:25:40.799Z,1010.28
2023-05-12T09:26:40.790Z,1010.33
2023-05-12T09:27:40.694Z,1010.40
2023-05-12T09:28:40.874Z,1010.40
2023-05-12T09:29:51.582Z,1010.36
2023-05-12T09:30:41.669Z,1010.40
2023-05-12T09:31:40.847Z,1010.40
2023-05-12T09:32:40.663Z,1010.39
2023-05-12T09:33:40.698Z,1010.44
2023-05-12T09:34:40.625Z,1010.45
2023-05-12T09:35:40.605Z,1010.45
2023-05-12T09:36:40.618Z,1010.44
2023-05-12T09:37:40.607Z,1010.47
2023-05-12T09:38:40.608Z,1010.45
2023-05-12T09:39:40.593Z,1010.48
2023-05-12T09:40:40.572Z,1010.44
2023-05-12T09:41:40.547Z,1010.48
2023-05-12T09:42:40.543Z,1010.40
2023-05-12T09:43:40.517Z,1010.43
2023-05-12T09:44:40.537Z,1010.48
2023-05-12T09:45:40.544Z,1010.49
2023-05-12T09:46:40.515Z,1010.50
2023-05-12T09:47:40.504Z,1010.47
2023-05-12T09:48:40.481Z,1010.47
2023-05-12T09:49:40.579Z,1010.48
2023-05-12T09:50:47.157Z,1010.48
2023-05-12T09:51:41.464Z,1010.53
2023-05-12T09:52:40.426Z,1010.49
2023-05-12T09:53:40.421Z,1010.47
2023-05-12T09:54:40.411Z,1010.48
2023-05-12T09:55:40.433Z,1010.50
2023-05-12T09:56:40.395Z,1010.45
2023-05-12T09:57:40.366Z,1010.45
2023-05-12T09:58:40.354Z,1010.47
2023-05-12T09:59:43.007Z,1010.46
2023-05-12T10:00:52.508Z,1010.42
2023-05-12T10:01:41.370Z,1010.44
2023-05-12T10:02:40.363Z,1010.48
2023-05-12T10:03:40.302Z,1010.42
2023-05-12T10:04:40.334Z,1010.41
2023-05-12T10:05:40.366Z,1010.39
2023-05-12T10:06:40.280Z,1010.43
2023-05-12T10:07:40.266Z,1010.42
2023-05-12T10:08:40.245Z,1010.34
2023-05-12T10:09:40.238Z,1010.35
2023-05-12T10:10:40.229Z,1010.41
2023-05-12T10:11:41.159Z,1010.37
2023-05-12T10:12:40.211Z,1010.38
2023-05-12T10:13:40.194Z,1010.40
2023-05-12T10:14:40.196Z,1010.37
2023-05-12T10:15:40.179Z,1010.36
2023-05-12T10:16:40.225Z,1010.39
2023-05-12T10:17:40.175Z,1010.34
2023-05-12T10:18:40.167Z,1010.37
2023-05-12T10:19:40.119Z,1010.35
2023-05-12T10:20:40.112Z,1010.32
2023-05-12T10:21:40.214Z,1010.33
2023-05-12T10:22:40.083Z,1010.33
2023-05-12T10:23:40.096Z,1010.35
2023-05-12T10:24:40.059Z,1010.43
2023-05-12T10:25:40.060Z,1010.39
2023-05-12T10:26:40.098Z,1010.35
2023-05-12T10:27:40.029Z,1010.33
2023-05-12T10:28:40.013Z,1010.33
2023-05-12T10:29:40.016Z,1010.26
2023-05-12T10:30:39.997Z,1010.35
2023-05-12T10:31:40.197Z,1010.29
2023-05-12T10:32:40.000Z,1010.32
2023-05-12T10:33:39.970Z,1010.35
2023-05-12T10:34:39.955Z,1010.39
2023-05-12T10:35:39.980Z,1010.39
2023-05-12T10:36:39.973Z,1010.43
2023-05-12T10:37:40.243Z,1010.40
2023-05-12T10:38:39.927Z,1010.36
2023-05-12T10:39:39.898Z,1010.35
2023-05-12T10:40:39.897Z,1010.40
2023-05-12T10:41:39.880Z,1010.31
2023-05-12T10:42:39.884Z,1010.33
2023-05-12T10:43:39.854Z,1010.37
2023-05-12T10:44:39.851Z,1010.38
2023-05-12T10:45:39.822Z,1010.37
2023-05-12T10:46:39.849Z,1010.36
2023-05-12T10:47:39.833Z,1010.34
2023-05-12T10:48:39.811Z,1010.31
2023-05-12T10:49:39.808Z,1010.32
2023-05-12T10:50:39.786Z,1010.33
2023-05-12T10:51:39.788Z,1010.28
2023-05-12T10:52:39.766Z,1010.22
2023-05-12T10:53:49.242Z,1010.22
2023-05-12T10:54:40.735Z,1010.24
2023-05-12T10:55:39.824Z,1010.33
2023-05-12T10:56:40.026Z,1010.27
2023-05-12T10:57:40.158Z,1010.27
2023-05-12T10:58:40.194Z,1010.24
2023-05-12T10:59:40.197Z,1010.27
2023-05-12T11:00:40.272Z,1010.28
2023-05-12T11:01:40.222Z,1010.26
2023-05-12T11:02:40.143Z,1010.22
2023-05-12T11:03:39.935Z,1010.29
2023-05-12T11:04:39.818Z,1010.30
2023-05-12T11:05:40.304Z,1010.30
2023-05-12T11:06:40.802Z,1010.27
2023-05-12T11:07:39.893Z,1010.31
2023-05-12T11:08:40.109Z,1010.31
2023-05-12T11:09:48.005Z,1010.35
2023-05-12T11:10:40.616Z,1010.33
2023-05-12T11:11:40.467Z,1010.35
2023-05-12T11:12:39.563Z,1010.37
2023-05-12T11:13:39.546Z,1010.42
2023-05-12T11:14:39.513Z,1010.46
2023-05-12T11:15:39.509Z,1010.42
2023-05-12T11:16:39.612Z,1010.45
2023-05-12T11:17:39.588Z,1010.43
2023-05-12T11:18:39.525Z,1010.43
2023-05-12T11:19:39.473Z,1010.49
2023-05-12T11:20:39.454Z,1010.49
2023-05-12T11:21:39.436Z,1010.42
2023-05-12T11:22:39.437Z,1010.44
2023-05-12T11:23:39.428Z,1010.45
2023-05-12T11:24:39.436Z,1010.46
2023-05-12T11:25:40.622Z,1010.48
2023-05-12T11:26:39.405Z,1010.46
2023-05-12T11:27:39.404Z,1010.46
2023-05-12T11:28:39.383Z,1010.44
2023-05-12T11:29:39.341Z,1010.47
2023-05-12T11:30:39.344Z,1010.41
2023-05-12T11:31:39.360Z,1010.45
2023-05-12T11:32:39.393Z,1010.42
2023-05-12T11:33:39.347Z,1010.43
2023-05-12T11:34:39.290Z,1010.45
2023-05-12T11:35:39.273Z,1010.44
2023-05-12T11:36:39.292Z,1010.44
2023-05-12T11:37:39.274Z,1010.48
2023-05-12T11:38:39.279Z,1010.41
2023-05-12T11:39:39.242Z,1010.39
2023-05-12T11:40:39.224Z,1010.41
2023-05-12T11:41:39.322Z,1010.41
2023-05-12T11:42:39.217Z,1010.38
2023-05-12T11:43:39.222Z,1010.41
2023-05-12T11:44:39.189Z,1010.42
2023-05-12T11:45:39.213Z,1010.41
2023-05-12T11:46:39.195Z,1010.42
2023-05-12T11:47:39.197Z,1010.44
2023-05-12T11:48:39.157Z,1010.43
2023-05-12T11:49:39.132Z,1010.38
2023-05-12T11:50:39.167Z,1010.40
2023-05-12T11:51:39.102Z,1010.37
2023-05-12T11:52:39.089Z,1010.42
2023-05-12T11:53:39.111Z,1010.41
2023-05-12T11:54:39.096Z,1010.43
2023-05-12T11:55:39.052Z,1010.38
2023-05-12T11:56:39.074Z,1010.43
2023-05-12T11:57:39.105Z,1010.38
2023-05-12T11:58:39.048Z,1010.47
2023-05-12T11:59:39.041Z,1010.44
2023-05-12T12:00:39.024Z,1010.41
2023-05-12T12:01:38.987Z,1010.40
2023-05-12T12:02:39.105Z,1010.39
2023-05-12T12:03:39.132Z,1010.38
2023-05-12T12:04:39.093Z,1010.39
2023-05-12T12:05:38.956Z,1010.44
2023-05-12T12:06:38.948Z,1010.42
2023-05-12T12:07:39.026Z,1010.42